createdAt,value
2019-02-25T00:01:29.684Z,21.10
2019-02-25T00:04:00.222Z,21.80
2019-02-25T00:06:30.671Z,22.40
2019-02-25T00:09:01.051Z,22.70
2019-02-25T00:11:31.281Z,24.50
2019-02-25T00:14:02.172Z,22.90
2019-02-25T00:16:33.418Z,22.90
2019-02-25T00:19:04.633Z,23.00
2019-02-25T00:21:35.675Z,23.10
2019-02-25T00:24:07.459Z,23.50
2019-02-25T00:26:38.235Z,23.50
2019-02-25T00:29:10.786Z,23.70
2019-02-25T00:31:42.547Z,23.90
2019-02-25T00:34:13.334Z,24.20
2019-02-25T00:36:44.671Z,24.30
2019-02-25T00:39:16.086Z,24.30
2019-02-25T00:41:46.934Z,24.20
2019-02-25T00:44:17.852Z,24.30
2019-02-25T00:46:49.195Z,24.50
2019-02-25T00:49:19.472Z,24.70
2019-02-25T00:51:50.309Z,25.00
2019-02-25T00:54:20.932Z,24.70
2019-02-25T00:56:51.947Z,24.40
2019-02-25T00:59:22.704Z,24.50
2019-02-25T01:01:53.427Z,24.60
2019-02-25T01:04:24.279Z,24.60
2019-02-25T01:06:54.966Z,24.90
2019-02-25T01:09:25.367Z,25.00
2019-02-25T01:11:56.163Z,25.00
2019-02-25T01:14:26.470Z,24.90
2019-02-25T01:16:57.269Z,25.90
2019-02-25T01:19:27.765Z,24.50
2019-02-25T01:21:58.962Z,23.40
2019-02-25T01:24:30.720Z,23.10
2019-02-25T01:27:01.200Z,23.20
2019-02-25T01:29:31.950Z,23.50
2019-02-25T01:32:04.892Z,23.90
2019-02-25T01:34:35.634Z,24.60
2019-02-25T01:37:05.798Z,24.80
2019-02-25T01:39:36.058Z,24.80
2019-02-25T01:42:06.515Z,25.20
2019-02-25T01:44:38.584Z,24.80
2019-02-25T01:47:08.760Z,24.60
2019-02-25T01:49:39.279Z,24.10
2019-02-25T01:52:09.393Z,23.70
2019-02-25T01:54:39.741Z,23.50
2019-02-25T01:57:10.306Z,24.80
2019-02-25T01:59:40.965Z,24.70
2019-02-25T02:02:11.242Z,24.20
2019-02-25T02:04:41.640Z,23.80
2019-02-25T02:07:14.553Z,22.40
2019-02-25T02:09:43.787Z,23.70
2019-02-25T02:12:13.821Z,23.30
2019-02-25T02:14:44.082Z,23.50
2019-02-25T02:17:14.871Z,23.40
2019-02-25T02:19:45.177Z,22.70
2019-02-25T02:22:15.405Z,21.80
2019-02-25T02:24:45.516Z,22.50
2019-02-25T02:27:16.050Z,23.30
2019-02-25T02:29:46.292Z,23.30
2019-02-25T02:32:16.883Z,23.90
2019-02-25T02:34:47.278Z,24.60
2019-02-25T02:37:17.644Z,23.90
2019-02-25T02:39:47.847Z,23.30
2019-02-25T02:42:19.769Z,23.90
2019-02-25T02:44:52.265Z,24.50
2019-02-25T02:47:25.917Z,26.00
2019-02-25T02:49:56.374Z,26.00
2019-02-25T02:52:26.718Z,24.70
2019-02-25T02:54:57.029Z,24.90
2019-02-25T02:57:27.396Z,25.20
2019-02-25T02:59:58.068Z,25.90
2019-02-25T03:02:28.344Z,26.40
2019-02-25T03:04:59.014Z,26.70
2019-02-25T03:07:29.749Z,27.00
2019-02-25T03:10:00.093Z,27.30
2019-02-25T03:12:30.289Z,27.60
2019-02-25T03:15:00.678Z,27.40
2019-02-25T03:17:31.264Z,27.40
2019-02-25T03:20:01.961Z,26.90
2019-02-25T03:22:32.453Z,26.80
2019-02-25T03:25:02.691Z,27.00
2019-02-25T03:27:33.284Z,26.80
2019-02-25T03:30:04.086Z,27.30
2019-02-25T03:32:34.396Z,27.00
2019-02-25T03:35:05.689Z,27.20
2019-02-25T03:37:36.189Z,27.50
2019-02-25T03:40:17.813Z,26.00
2019-02-25T03:42:47.948Z,25.90
2019-02-25T03:45:19.652Z,26.80
2019-02-25T03:47:49.902Z,26.70
2019-02-25T03:50:25.673Z,26.90
2019-02-25T03:52:55.845Z,27.60
2019-02-25T03:55:26.467Z,26.80
2019-02-25T03:57:57.316Z,26.80
2019-02-25T04:00:27.922Z,27.10
2019-02-25T04:02:58.985Z,27.60
2019-02-25T04:05:29.085Z,27.80
2019-02-25T04:07:59.964Z,27.40
2019-02-25T04:10:30.829Z,27.20
2019-02-25T04:13:01.455Z,27.80
2019-02-25T04:15:34.297Z,28.40
2019-02-25T04:18:05.418Z,29.20
2019-02-25T04:20:36.820Z,29.40
2019-02-25T04:23:07.529Z,28.90
2019-02-25T04:25:37.854Z,29.10
2019-02-25T04:28:08.035Z,28.70
2019-02-25T04:30:38.259Z,28.40
2019-02-25T04:33:08.608Z,27.40
2019-02-25T04:35:38.759Z,26.80
2019-02-25T04:38:09.118Z,26.40
2019-02-25T04:40:39.670Z,26.30
2019-02-25T04:43:10.143Z,27.00
2019-02-25T04:45:44.393Z,27.60
2019-02-25T04:48:14.570Z,28.60
2019-02-25T04:50:45.034Z,29.80
2019-02-25T04:53:15.438Z,30.60
2019-02-25T04:55:45.937Z,31.70
2019-02-25T04:58:17.871Z,32.30
2019-02-25T05:00:47.909Z,31.90
2019-02-25T05:03:21.195Z,32.00
2019-02-25T05:05:51.636Z,32.20
2019-02-25T05:08:22.048Z,31.40
2019-02-25T05:10:52.690Z,30.40
2019-02-25T05:13:22.901Z,29.60
2019-02-25T05:15:53.994Z,29.50
2019-02-25T05:18:27.074Z,29.60
2019-02-25T05:20:57.511Z,30.10
2019-02-25T05:23:27.787Z,30.70
2019-02-25T05:25:58.170Z,30.80
2019-02-25T05:28:34.031Z,31.00
2019-02-25T05:31:04.831Z,31.30
2019-02-25T05:33:35.047Z,31.10
2019-02-25T05:36:05.451Z,29.90
2019-02-25T05:38:35.852Z,29.40
2019-02-25T05:41:07.881Z,29.40
2019-02-25T05:43:38.454Z,29.40
2019-02-25T05:46:10.783Z,28.60
2019-02-25T05:48:41.944Z,28.00
2019-02-25T05:51:14.597Z,27.40
2019-02-25T05:53:45.247Z,27.20
2019-02-25T05:56:15.780Z,27.80
2019-02-25T05:58:47.799Z,28.90
2019-02-25T06:01:19.042Z,29.90
2019-02-25T06:03:49.595Z,31.30
2019-02-25T06:06:20.291Z,32.50
2019-02-25T06:08:50.822Z,33.20
2019-02-25T06:11:21.105Z,33.70
2019-02-25T06:13:51.740Z,34.10
2019-02-25T06:16:22.411Z,34.10
2019-02-25T06:18:54.034Z,33.80
2019-02-25T06:21:24.460Z,32.30
2019-02-25T06:23:54.633Z,30.60
2019-02-25T06:26:25.046Z,29.00
2019-02-25T06:28:55.281Z,28.50
2019-02-25T06:31:25.521Z,29.20
2019-02-25T06:33:57.314Z,29.80
2019-02-25T06:36:30.601Z,30.60
2019-02-25T06:39:01.174Z,31.30
2019-02-25T06:41:31.952Z,31.10
2019-02-25T06:44:02.372Z,31.30
2019-02-25T06:46:32.980Z,31.40
2019-02-25T06:49:03.067Z,32.00
2019-02-25T06:51:33.879Z,32.80
2019-02-25T06:54:04.692Z,32.30
2019-02-25T06:56:34.839Z,31.00
2019-02-25T06:59:05.047Z,31.90
2019-02-25T07:01:35.339Z,32.30
2019-02-25T07:04:37.983Z,32.30
2019-02-25T07:07:10.058Z,35.10
2019-02-25T07:10:00.707Z,35.60
2019-02-25T07:12:41.662Z,32.80
2019-02-25T07:15:16.190Z,31.30
2019-02-25T07:17:53.867Z,31.90
2019-02-25T07:20:42.705Z,32.80
2019-02-25T07:23:17.364Z,31.60
2019-02-25T07:25:57.816Z,32.30
2019-02-25T07:28:38.527Z,31.10
2019-02-25T07:31:15.765Z,31.30
2019-02-25T07:33:47.371Z,32.90
2019-02-25T07:36:18.865Z,32.50
2019-02-25T07:38:53.773Z,32.80
2019-02-25T07:41:28.567Z,32.30
2019-02-25T07:44:06.129Z,33.50
2019-02-25T07:46:41.253Z,33.50
2019-02-25T07:49:15.757Z,35.30
2019-02-25T07:51:56.262Z,33.70
2019-02-25T07:54:37.087Z,35.90
2019-02-25T07:57:11.516Z,37.80
2019-02-25T07:59:52.283Z,31.40
2019-02-25T08:02:33.018Z,35.30
2019-02-25T08:05:04.631Z,29.90
2019-02-25T08:07:52.443Z,29.60
2019-02-25T08:10:26.907Z,30.70
2019-02-25T08:13:16.663Z,29.90
2019-02-25T08:15:57.126Z,32.00
2019-02-25T08:18:28.546Z,29.60
2019-02-25T08:21:02.737Z,32.60
2019-02-25T08:23:34.155Z,30.40
2019-02-25T08:26:08.217Z,29.50
2019-02-25T08:28:55.847Z,34.10
2019-02-25T08:31:41.945Z,29.10
2019-02-25T08:34:29.165Z,30.40
2019-02-25T08:37:15.125Z,29.40
2019-02-25T08:39:58.626Z,29.00
2019-02-25T08:42:37.625Z,29.00
2019-02-25T08:45:17.586Z,27.70
2019-02-25T08:47:55.260Z,26.10
2019-02-25T08:50:25.214Z,26.30
2019-02-25T08:52:54.993Z,24.90
2019-02-25T08:55:25.039Z,25.40
2019-02-25T08:57:54.821Z,20.90
2019-02-25T09:00:24.539Z,22.00
2019-02-25T09:02:54.679Z,18.70
2019-02-25T09:05:24.335Z,20.70
2019-02-25T09:07:54.049Z,19.90
2019-02-25T09:10:23.687Z,19.40
2019-02-25T09:12:53.479Z,16.10
2019-02-25T09:15:23.531Z,16.30
2019-02-25T09:17:52.156Z,17.60
2019-02-25T09:20:21.974Z,15.70
2019-02-25T09:22:51.673Z,16.10
2019-02-25T09:25:21.658Z,15.60
2019-02-25T09:27:51.346Z,15.30
2019-02-25T09:30:21.244Z,16.50
2019-02-25T09:32:51.006Z,14.80
2019-02-25T09:35:20.918Z,16.20
2019-02-25T09:37:50.917Z,16.60
2019-02-25T09:40:21.128Z,17.50
2019-02-25T09:42:51.377Z,16.60
2019-02-25T09:45:21.576Z,15.60
2019-02-25T09:47:51.747Z,15.40
2019-02-25T09:50:23.457Z,15.90
2019-02-25T09:52:53.562Z,16.50
2019-02-25T09:55:23.863Z,16.80
2019-02-25T09:57:53.914Z,17.00
2019-02-25T10:00:24.404Z,17.40
2019-02-25T10:02:54.477Z,16.10
2019-02-25T10:05:24.719Z,16.80
2019-02-25T10:07:54.644Z,16.90
2019-02-25T10:10:24.807Z,16.50
2019-02-25T10:12:54.951Z,15.50
2019-02-25T10:15:28.991Z,15.30
2019-02-25T10:17:58.995Z,15.70
2019-02-25T10:20:29.288Z,14.90
2019-02-25T10:22:59.904Z,16.00
2019-02-25T10:25:30.059Z,18.20
2019-02-25T10:28:00.240Z,18.40
2019-02-25T10:30:30.317Z,17.60
2019-02-25T10:33:00.905Z,16.70
2019-02-25T10:35:31.082Z,16.30
2019-02-25T10:38:03.131Z,16.90
2019-02-25T10:40:33.326Z,16.60
2019-02-25T10:43:03.897Z,17.10
2019-02-25T10:45:35.085Z,16.60
2019-02-25T10:48:05.826Z,15.80
2019-02-25T10:50:38.670Z,15.80
2019-02-25T10:53:10.823Z,15.70
2019-02-25T10:55:54.221Z,15.90
2019-02-25T10:58:25.319Z,15.20
2019-02-25T11:00:56.295Z,14.40
2019-02-25T11:03:26.460Z,14.90
2019-02-25T11:05:58.501Z,14.60
2019-02-25T11:08:28.975Z,14.50
2019-02-25T11:11:00.673Z,14.50
2019-02-25T11:13:31.894Z,15.30
2019-02-25T11:16:02.805Z,15.50
2019-02-25T11:18:32.951Z,15.50
2019-02-25T11:21:03.661Z,16.60
2019-02-25T11:23:34.665Z,17.80
2019-02-25T11:26:04.948Z,18.10
2019-02-25T11:28:36.618Z,17.80
2019-02-25T11:31:07.148Z,16.90
2019-02-25T11:33:39.455Z,16.60
2019-02-25T11:36:10.539Z,16.10
2019-02-25T11:38:41.313Z,16.50
2019-02-25T11:41:11.809Z,16.10
2019-02-25T11:43:44.076Z,15.80
2019-02-25T11:46:14.507Z,16.10
2019-02-25T11:48:44.751Z,14.80
2019-02-25T11:51:14.869Z,15.80
2019-02-25T11:53:45.139Z,15.10
2019-02-25T11:56:15.418Z,15.20
2019-02-25T11:58:45.507Z,15.10
2019-02-25T12:01:17.100Z,15.30
2019-02-25T12:03:47.276Z,15.50
2019-02-25T12:06:17.288Z,16.00
2019-02-25T12:08:47.507Z,16.10
2019-02-25T12:11:17.859Z,16.30
2019-02-25T12:13:47.999Z,16.20
2019-02-25T12:16:18.193Z,15.40
2019-02-25T12:18:48.317Z,14.50
2019-02-25T12:21:18.417Z,15.20
2019-02-25T12:23:48.460Z,15.50
2019-02-25T12:26:18.552Z,15.10
2019-02-25T12:28:48.716Z,15.90
2019-02-25T12:31:18.727Z,16.20
2019-02-25T12:33:48.704Z,16.20
2019-02-25T12:36:18.682Z,17.20
2019-02-25T12:38:48.774Z,16.60
2019-02-25T12:41:18.792Z,16.30
2019-02-25T12:43:49.012Z,16.20
2019-02-25T12:46:19.157Z,16.50
2019-02-25T12:48:49.539Z,15.90
2019-02-25T12:51:19.532Z,16.40
2019-02-25T12:53:49.494Z,16.20
2019-02-25T12:56:19.631Z,15.60
2019-02-25T12:58:49.736Z,16.00
2019-02-25T13:01:20.598Z,15.30
2019-02-25T13:03:50.882Z,15.70
2019-02-25T13:06:20.947Z,16.10
2019-02-25T13:08:51.092Z,16.60
2019-02-25T13:11:21.078Z,17.00
2019-02-25T13:13:51.151Z,17.60
2019-02-25T13:16:21.356Z,17.50
2019-02-25T13:18:51.454Z,17.90
2019-02-25T13:21:21.994Z,17.60
2019-02-25T13:23:52.227Z,17.00
2019-02-25T13:26:22.812Z,18.20
2019-02-25T13:28:52.959Z,18.30
2019-02-25T13:31:23.491Z,17.70
2019-02-25T13:33:53.735Z,17.70
2019-02-25T13:36:23.995Z,17.80
2019-02-25T13:38:54.298Z,18.10
2019-02-25T13:41:24.748Z,17.40
2019-02-25T13:43:55.072Z,18.10
2019-02-25T13:46:26.372Z,17.60
2019-02-25T13:48:57.525Z,18.50
2019-02-25T13:51:27.961Z,18.90
2019-02-25T13:53:58.134Z,19.00
2019-02-25T13:56:30.934Z,19.50
2019-02-25T13:59:01.610Z,19.30
2019-02-25T14:01:32.579Z,18.80
2019-02-25T14:04:03.122Z,18.60
2019-02-25T14:06:33.360Z,17.80
2019-02-25T14:09:05.872Z,18.60
2019-02-25T14:11:36.737Z,18.70
2019-02-25T14:14:06.936Z,18.50
2019-02-25T14:16:37.174Z,19.50
2019-02-25T14:19:08.334Z,19.20
2019-02-25T14:21:39.107Z,19.50
2019-02-25T14:24:09.502Z,19.30
2019-02-25T14:26:39.918Z,19.40
2019-02-25T14:29:10.269Z,19.20
2019-02-25T14:31:42.752Z,18.30
2019-02-25T14:34:13.217Z,18.20
2019-02-25T14:36:43.601Z,19.20
2019-02-25T14:39:27.828Z,18.90
2019-02-25T14:41:58.970Z,20.30
2019-02-25T14:44:32.442Z,21.80
2019-02-25T14:47:02.629Z,20.00
2019-02-25T14:49:32.726Z,20.10
2019-02-25T14:52:03.409Z,20.20
2019-02-25T14:54:35.183Z,21.60
2019-02-25T14:57:05.690Z,20.40
2019-02-25T14:59:35.799Z,20.80
2019-02-25T15:02:06.979Z,20.70
2019-02-25T15:04:39.525Z,20.30
2019-02-25T15:07:10.896Z,19.70
2019-02-25T15:09:41.754Z,19.90
2019-02-25T15:12:13.706Z,20.30
2019-02-25T15:14:43.782Z,20.40
2019-02-25T15:17:14.872Z,19.00
2019-02-25T15:19:45.332Z,19.50
2019-02-25T15:22:15.599Z,18.70
2019-02-25T15:24:48.033Z,19.60
2019-02-25T15:27:17.869Z,19.70
2019-02-25T15:29:48.960Z,19.70
2019-02-25T15:32:19.970Z,19.20
2019-02-25T15:34:50.781Z,19.10
2019-02-25T15:37:21.765Z,18.80
2019-02-25T15:39:51.986Z,19.80
2019-02-25T15:42:24.088Z,18.90
2019-02-25T15:44:55.543Z,19.50
2019-02-25T15:47:26.441Z,20.10
2019-02-25T15:49:59.781Z,21.00
2019-02-25T15:52:30.843Z,21.30
2019-02-25T15:55:01.890Z,20.70
2019-02-25T15:57:32.964Z,20.70
2019-02-25T16:00:05.512Z,20.80
2019-02-25T16:02:35.807Z,20.10
2019-02-25T16:05:09.927Z,20.80
2019-02-25T16:07:40.429Z,19.70
2019-02-25T16:10:13.988Z,20.70
2019-02-25T16:12:44.261Z,21.70
2019-02-25T16:15:18.356Z,20.80
2019-02-25T16:17:51.678Z,23.50
2019-02-25T16:20:22.972Z,23.00
2019-02-25T16:22:56.302Z,22.30
2019-02-25T16:25:27.536Z,23.40
2019-02-25T16:27:58.315Z,23.30
2019-02-25T16:30:30.769Z,23.70
2019-02-25T16:33:04.340Z,26.10
2019-02-25T16:35:34.323Z,24.70
2019-02-25T16:38:05.222Z,24.30
2019-02-25T16:40:38.390Z,25.10
2019-02-25T16:43:12.032Z,25.70
2019-02-25T16:45:41.947Z,26.30
2019-02-25T16:48:11.870Z,26.80
2019-02-25T16:50:44.066Z,26.50
2019-02-25T16:53:15.543Z,27.10
2019-02-25T16:55:47.012Z,27.60
2019-02-25T16:58:17.249Z,28.80
2019-02-25T17:00:47.834Z,26.80
2019-02-25T17:03:18.814Z,26.80
2019-02-25T17:05:50.423Z,27.60
2019-02-25T17:08:21.217Z,27.90
2019-02-25T17:10:51.896Z,28.10
2019-02-25T17:13:42.188Z,27.60
2019-02-25T17:16:18.102Z,27.70
2019-02-25T17:18:45.956Z,28.60
2019-02-25T17:21:16.300Z,28.50
2019-02-25T17:23:46.551Z,28.90
2019-02-25T17:26:17.526Z,29.20
2019-02-25T17:28:48.750Z,29.90
2019-02-25T17:31:18.898Z,29.40
2019-02-25T17:33:49.611Z,29.20
2019-02-25T17:36:20.964Z,29.70
2019-02-25T17:38:52.006Z,30.40
2019-02-25T17:41:22.228Z,30.80
2019-02-25T17:43:52.544Z,31.00
2019-02-25T17:46:22.706Z,31.10
2019-02-25T17:48:52.909Z,31.00
2019-02-25T17:51:23.019Z,31.30
2019-02-25T17:53:54.867Z,31.70
2019-02-25T17:56:26.680Z,31.60
2019-02-25T17:58:56.259Z,31.60
2019-02-25T18:01:27.902Z,32.60
2019-02-25T18:03:57.470Z,31.90
2019-02-25T18:06:29.736Z,33.50
2019-02-25T18:08:59.940Z,32.60
2019-02-25T18:11:30.324Z,30.60
2019-02-25T18:14:00.431Z,31.00
2019-02-25T18:16:33.042Z,29.40
2019-02-25T18:19:01.694Z,28.90
2019-02-25T18:21:31.488Z,28.90
2019-02-25T18:24:01.291Z,29.00
2019-02-25T18:26:31.584Z,29.20
2019-02-25T18:29:01.697Z,29.50
2019-02-25T18:31:32.013Z,29.50
2019-02-25T18:34:01.853Z,30.10
2019-02-25T18:36:33.210Z,28.70
2019-02-25T18:39:03.278Z,28.60
2019-02-25T18:41:34.293Z,28.70
2019-02-25T18:44:04.915Z,28.70
2019-02-25T18:46:35.586Z,28.90
2019-02-25T18:49:07.276Z,28.30
2019-02-25T18:51:37.490Z,27.90
2019-02-25T18:54:08.358Z,28.20
2019-02-25T18:56:40.252Z,28.30
2019-02-25T18:59:14.875Z,28.50
2019-02-25T19:02:00.421Z,28.90
2019-02-25T19:04:30.114Z,29.00
2019-02-25T19:07:01.765Z,29.00
2019-02-25T19:09:31.631Z,29.00
2019-02-25T19:12:03.459Z,29.20
2019-02-25T19:14:33.537Z,29.60
2019-02-25T19:17:04.867Z,29.90
2019-02-25T19:19:38.135Z,32.20
2019-02-25T19:22:08.145Z,29.70
2019-02-25T19:24:41.628Z,30.60
2019-02-25T19:27:10.646Z,30.80
2019-02-25T19:29:40.627Z,29.00
2019-02-25T19:32:10.596Z,31.90
2019-02-25T19:34:40.563Z,31.60
2019-02-25T19:37:12.206Z,28.20
2019-02-25T19:39:43.819Z,28.40
2019-02-25T19:42:15.383Z,28.40
2019-02-25T19:44:44.978Z,29.20
2019-02-25T19:47:16.628Z,27.00
2019-02-25T19:49:46.297Z,27.00
2019-02-25T19:52:16.936Z,29.00
2019-02-25T19:54:48.783Z,27.00
2019-02-25T19:57:23.531Z,27.30
2019-02-25T19:59:56.190Z,28.10
2019-02-25T20:02:27.214Z,27.40
2019-02-25T20:04:58.556Z,30.40
2019-02-25T20:07:30.943Z,27.80
2019-02-25T20:10:01.489Z,27.20
2019-02-25T20:12:35.177Z,27.40
2019-02-25T20:15:07.080Z,28.00
2019-02-25T20:17:37.094Z,27.30
2019-02-25T20:20:12.632Z,28.00
2019-02-25T20:22:43.589Z,28.50
2019-02-25T20:25:19.366Z,27.20
2019-02-25T20:27:50.828Z,27.00
2019-02-25T20:30:23.620Z,27.60
2019-02-25T20:32:54.698Z,28.10
2019-02-25T20:35:26.895Z,28.50
2019-02-25T20:37:58.629Z,28.90
2019-02-25T20:40:50.824Z,29.20
2019-02-25T20:43:23.241Z,30.30
2019-02-25T20:45:54.621Z,27.60
2019-02-25T20:48:27.394Z,26.70
2019-02-25T20:51:00.290Z,28.40
2019-02-25T20:53:32.231Z,25.70
2019-02-25T20:56:02.257Z,26.90
2019-02-25T20:58:32.162Z,28.00
2019-02-25T21:01:05.218Z,28.00
2019-02-25T21:03:34.048Z,25.50
2019-02-25T21:06:04.047Z,25.20
2019-02-25T21:08:39.847Z,25.70
2019-02-25T21:11:11.188Z,28.30
2019-02-25T21:13:41.349Z,28.00
2019-02-25T21:16:11.483Z,26.10
2019-02-25T21:18:42.014Z,26.30
2019-02-25T21:21:13.985Z,27.00
2019-02-25T21:23:44.672Z,26.30
2019-02-25T21:26:14.917Z,26.30
2019-02-25T21:28:44.794Z,27.00
2019-02-25T21:31:17.344Z,28.00
2019-02-25T21:33:49.818Z,28.60
2019-02-25T21:36:17.718Z,26.50
2019-02-25T21:38:49.507Z,27.60
2019-02-25T21:41:19.145Z,27.10
2019-02-25T21:43:49.499Z,28.00
2019-02-25T21:46:23.887Z,26.30
2019-02-25T21:48:54.852Z,25.40
2019-02-25T21:51:23.951Z,27.50
2019-02-25T21:53:55.649Z,27.40
2019-02-25T21:56:26.994Z,29.80
2019-02-25T21:58:56.643Z,26.00
2019-02-25T22:01:26.578Z,25.90
2019-02-25T22:03:56.488Z,26.40
2019-02-25T22:06:26.844Z,27.00
2019-02-25T22:08:58.554Z,41.20
2019-02-25T22:11:31.892Z,28.20
2019-02-25T22:14:01.482Z,30.60
2019-02-25T22:16:32.115Z,28.30
2019-02-25T22:19:02.104Z,26.50
2019-02-25T22:21:31.933Z,26.70
2019-02-25T22:24:04.927Z,27.30
2019-02-25T22:26:35.608Z,28.10
2019-02-25T22:29:07.266Z,27.90
2019-02-25T22:31:39.437Z,28.40
2019-02-25T22:34:12.817Z,28.90
2019-02-25T22:36:44.361Z,29.40
2019-02-25T22:39:15.355Z,29.80
2019-02-25T22:41:47.027Z,29.40
2019-02-25T22:44:17.618Z,31.30
2019-02-25T22:46:47.938Z,30.40
2019-02-25T22:49:18.351Z,30.30
2019-02-25T22:51:49.412Z,34.20
2019-02-25T22:54:21.645Z,30.60
2019-02-25T22:56:52.325Z,30.70
2019-02-25T22:59:22.402Z,30.40
2019-02-25T23:01:53.102Z,29.40
2019-02-25T23:04:24.332Z,32.00
2019-02-25T23:06:55.741Z,29.00
2019-02-25T23:09:26.363Z,31.40
2019-02-25T23:11:56.478Z,29.50
2019-02-25T23:14:26.993Z,28.50
2019-02-25T23:16:59.796Z,28.90
2019-02-25T23:19:30.733Z,31.90
2019-02-25T23:22:00.816Z,28.70
2019-02-25T23:24:34.615Z,30.40
2019-02-25T23:27:03.121Z,29.90
2019-02-25T23:29:33.833Z,29.00
2019-02-25T23:32:04.171Z,29.20
2019-02-25T23:34:38.320Z,28.10
2019-02-25T23:37:08.394Z,27.00
2019-02-25T23:39:40.434Z,27.90
2019-02-25T23:42:11.444Z,29.00
2019-02-25T23:44:43.077Z,29.00
2019-02-25T23:47:14.230Z,26.60
2019-02-25T23:49:46.214Z,27.20
2019-02-25T23:52:17.774Z,28.20
2019-02-25T23:54:49.706Z,27.50
2019-02-25T23:57:21.722Z,29.30
2019-02-25T23:59:53.986Z,29.80
